Time;durP1;ratioP1;P1;durP2;ratioP2;P2;SDS_P1;SDS_P2;PMS_P1;PMS_P2;Temp;Humidity;BMP_temperature;BMP_pressure;BME280_temperature;BME280_humidity;BME280_pressure;Samples;Min_cycle;Max_cycle;Signal;HPM_P1;HPM_P2
2023/11/17 00:01:45;;;;;;;4.70;4.43;;;;;;;4.48;100.00;100899.25;6029630;23;20210;-75
2023/11/17 00:04:14;;;;;;;4.32;4.03;;;;;;;4.71;100.00;100953.31;5996905;23;20998;-75
2023/11/17 00:06:40;;;;;;;4.72;4.38;;;;;;;4.48;100.00;100927.84;6025423;23;20030;-74
2023/11/17 00:09:10;;;;;;;4.47;4.07;;;;;;;4.42;100.00;100909.78;6020710;23;20042;-74
2023/11/17 00:11:37;;;;;;;4.95;4.57;;;;;;;4.44;100.00;100928.78;6025675;23;20034;-73
2023/11/17 00:14:04;;;;;;;5.18;4.88;;;;;;;4.73;100.00;100974.91;6006693;23;20031;-75
2023/11/17 00:16:31;;;;;;;7.82;5.82;;;;;;;4.12;100.00;100919.97;6024384;23;20027;-73
2023/11/17 00:18:58;;;;;;;4.95;4.55;;;;;;;4.07;100.00;100895.00;6033735;23;20026;-73
2023/11/17 00:21:24;;;;;;;5.38;4.97;;;;;;;4.31;100.00;100951.63;6003838;23;20035;-74
2023/11/17 00:23:51;;;;;;;4.85;4.43;;;;;;;4.46;100.00;100994.59;6014477;23;20011;-74
2023/11/17 00:26:17;;;;;;;4.40;4.05;;;;;;;3.85;100.00;100877.31;6008691;23;20031;-75
2023/11/17 00:28:44;;;;;;;4.55;4.22;;;;;;;4.47;100.00;101000.63;6031830;23;20075;-75
2023/11/17 00:31:11;;;;;;;4.95;4.70;;;;;;;3.77;100.00;100889.59;6032347;23;20035;-74
2023/11/17 00:33:38;;;;;;;13.27;4.25;;;;;;;4.18;100.00;100953.59;6009149;23;20086;-74
2023/11/17 00:36:05;;;;;;;5.30;4.90;;;;;;;4.47;100.00;101016.22;6035197;23;20057;-74
2023/11/17 00:38:32;;;;;;;8.40;7.30;;;;;;;4.25;100.00;100979.44;6013053;23;20111;-74
2023/11/17 00:41:00;;;;;;;5.00;4.70;;;;;;;4.44;100.00;101016.31;6030519;23;20761;-73
2023/11/17 00:43:27;;;;;;;5.05;4.72;;;;;;;3.79;100.00;100913.78;6037018;23;20049;-74
2023/11/17 00:46:00;;;;;;;7.88;5.60;;;;;;;4.22;100.00;101003.75;6036882;23;20026;-74
2023/11/17 00:48:28;;;;;;;5.68;5.38;;;;;;;4.35;100.00;101041.59;6026376;23;20030;-73
2023/11/17 00:50:55;;;;;;;5.85;5.35;;;;;;;4.33;100.00;101035.59;6031242;23;20021;-73
2023/11/17 00:53:23;;;;;;;5.00;4.70;;;;;;;4.30;100.00;101042.56;6005596;23;20066;-74
2023/11/17 00:55:50;;;;;;;4.50;4.22;;;;;;;3.80;100.00;100973.44;6032484;23;20612;-74
2023/11/17 00:58:17;;;;;;;5.80;5.38;;;;;;;4.25;100.00;101062.59;6033543;23;20737;-74
2023/11/17 01:00:44;;;;;;;5.47;5.15;;;;;;;3.86;100.00;100995.81;6001646;23;20095;-74
2023/11/17 01:03:11;;;;;;;4.93;4.63;;;;;;;3.99;100.00;101025.03;6009845;23;20584;-74
2023/11/17 01:05:37;;;;;;;6.45;5.85;;;;;;;3.58;100.00;100972.16;6028891;23;20124;-74
2023/11/17 01:08:06;;;;;;;5.43;5.00;;;;;;;4.11;100.00;101081.03;6034048;23;20027;-74
2023/11/17 01:10:37;;;;;;;6.05;5.70;;;;;;;3.22;100.00;100938.22;6027112;23;20046;-73
2023/11/17 01:13:05;;;;;;;4.97;4.57;;;;;;;3.40;100.00;100968.16;6001772;23;20975;-74
2023/11/17 01:15:35;;;;;;;5.95;5.55;;;;;;;3.06;100.00;100929.00;6036525;23;20465;-74
2023/11/17 01:18:06;;;;;;;9.73;6.00;;;;;;;4.10;100.00;101110.50;6015884;23;20071;-74
2023/11/17 01:20:35;;;;;;;7.80;6.97;;;;;;;4.12;100.00;101125.16;6024041;23;20034;-73
2023/11/17 01:23:02;;;;;;;5.80;5.28;;;;;;;4.02;100.00;101104.59;5985940;23;20031;-73
2023/11/17 01:25:30;;;;;;;5.43;4.93;;;;;;;3.77;100.00;101077.34;6034566;23;20088;-74
2023/11/17 01:27:56;;;;;;;4.65;4.25;;;;;;;3.93;100.00;101123.78;6027282;23;20043;-73
2023/11/17 01:30:23;;;;;;;6.65;6.05;;;;;;;3.90;100.00;101129.91;6022406;23;20046;-74
2023/11/17 01:32:53;;;;;;;7.50;5.10;;;;;;;3.25;100.00;101023.75;5975153;23;20106;-74
2023/11/17 01:35:22;;;;;;;4.78;4.47;;;;;;;3.65;100.00;101113.03;6002271;23;20030;-75
2023/11/17 01:37:49;;;;;;;5.40;5.00;;;;;;;3.40;100.00;101077.09;6022986;23;20105;-74
2023/11/17 01:40:17;;;;;;;4.78;4.38;;;;;;;3.36;100.00;101081.50;6005675;23;20054;-75
2023/11/17 01:42:44;;;;;;;7.32;6.63;;;;;;;3.22;100.00;101073.06;6021905;23;20093;-74
2023/11/17 01:45:11;;;;;;;6.50;5.28;;;;;;;3.71;100.00;101155.31;6001979;23;20027;-74
2023/11/17 01:47:39;;;;;;;7.13;5.93;;;;;;;2.97;100.00;101044.94;6024995;23;20046;-75
2023/11/17 01:50:09;;;;;;;5.97;5.47;;;;;;;3.67;100.00;101158.84;5999584;23;20023;-75
2023/11/17 01:52:37;;;;;;;7.03;6.45;;;;;;;3.67;100.00;101168.34;6021931;23;20186;-74
2023/11/17 01:55:07;;;;;;;5.45;5.05;;;;;;;2.47;100.00;100979.16;6026978;23;20040;-74
2023/11/17 01:57:37;;;;;;;4.95;4.65;;;;;;;3.57;100.00;101163.34;6022389;23;20335;-76
2023/11/17 02:00:06;;;;;;;6.35;5.80;;;;;;;3.47;100.00;101146.19;5992526;23;20027;-75
2023/11/17 02:02:34;;;;;;;7.65;7.07;;;;;;;3.31;100.00;101123.97;6021583;23;20041;-76
2023/11/17 02:05:02;;;;;;;5.25;4.75;;;;;;;3.62;100.00;101190.94;6025188;23;20023;-74
2023/11/17 02:07:36;;;;;;;5.05;4.75;;;;;;;2.88;100.00;101073.56;6024052;23;20044;-75
2023/11/17 02:10:38;;;;;;;5.65;5.25;;;;;;;2.93;100.00;101061.41;6025126;23;20089;-74
2023/11/17 02:13:14;;;;;;;7.75;5.40;;;;;;;3.66;100.00;101193.47;6018440;23;20138;-75
2023/11/17 02:15:41;;;;;;;5.35;4.95;;;;;;;3.64;100.00;101199.56;5999420;23;20557;-73
2023/11/17 02:18:10;;;;;;;17.98;5.13;;;;;;;2.90;100.00;101076.16;6028791;23;20015;-74
2023/11/17 02:20:37;;;;;;;7.07;6.32;;;;;;;3.36;100.00;101167.09;5971358;23;20257;-73
2023/11/17 02:23:10;;;;;;;5.03;4.57;;;;;;;2.78;100.00;101083.22;6030338;23;20042;-75
2023/11/17 02:25:36;;;;;;;;;;;;;;;3.56;100.00;101203.13;5993577;23;20038;-74
2023/11/17 02:28:30;;;;;;;4.75;4.43;;;;;;;3.54;100.00;101204.88;6007521;23;19922;-74
2023/11/17 02:30:58;;;;;;;5.10;4.50;;;;;;;3.54;100.00;101202.28;6024547;23;20044;-75
2023/11/17 02:33:25;;;;;;;5.15;4.80;;;;;;;2.84;100.00;101094.38;6028988;23;20074;-74
2023/11/17 02:36:03;;;;;;;5.45;4.95;;;;;;;2.25;100.00;101004.50;6028674;23;20093;-74
2023/11/17 02:38:31;;;;;;;5.85;5.55;;;;;;;3.45;100.00;101207.63;5975529;23;20061;-75
2023/11/17 02:40:57;;;;;;;4.60;4.30;;;;;;;2.98;100.00;101144.31;6027378;23;20054;-75
2023/11/17 02:43:29;;;;;;;5.20;4.75;;;;;;;3.18;100.00;101180.34;6023623;23;20017;-75
2023/11/17 02:45:55;;;;;;;5.05;4.75;;;;;;;3.01;100.00;101149.47;5996892;23;20096;-74
2023/11/17 02:48:24;;;;;;;5.53;5.13;;;;;;;2.67;100.00;101090.28;5994209;23;20018;-74
2023/11/17 02:51:17;;;;;;;5.15;4.85;;;;;;;3.36;100.00;101213.78;6023090;23;20027;-74
2023/11/17 02:53:49;;;;;;;4.20;4.00;;;;;;;3.34;100.00;101206.91;6005395;23;20035;-74
2023/11/17 02:56:21;;;;;;;4.88;4.47;;;;;;;2.98;100.00;101188.38;5996379;23;20402;-75
2023/11/17 02:58:48;;;;;;;7.22;5.40;;;;;;;2.54;100.00;101101.69;5998551;23;20122;-75
2023/11/17 03:01:15;;;;;;;6.63;6.07;;;;;;;2.83;100.00;101173.91;6026409;23;20773;-75
2023/11/17 03:03:43;;;;;;;5.63;5.22;;;;;;;2.78;100.00;101184.28;6017854;23;20018;-73
2023/11/17 03:06:10;;;;;;;6.90;6.30;;;;;;;3.12;100.00;101220.16;5973515;23;20063;-74
2023/11/17 03:08:36;;;;;;;6.70;6.10;;;;;;;3.08;100.00;101246.16;5995915;23;20893;-74
2023/11/17 03:11:03;;;;;;;13.30;4.68;;;;;;;3.02;100.00;101220.31;6002147;23;20087;-74
2023/11/17 03:13:32;;;;;;;6.03;5.55;;;;;;;2.99;100.00;101223.81;6029642;23;20404;-74
2023/11/17 03:15:59;;;;;;;7.28;4.90;;;;;;;2.96;100.00;101224.69;5998358;23;20027;-74
2023/11/17 03:18:30;;;;;;;5.90;5.50;;;;;;;2.91;100.00;101220.47;6007524;23;20018;-75
2023/11/17 03:21:01;;;;;;;5.50;5.07;;;;;;;1.85;100.00;101081.75;5998070;23;20031;-74
2023/11/17 03:23:32;;;;;;;5.15;4.75;;;;;;;2.44;100.00;101168.28;6031410;23;20028;-74
2023/11/17 03:25:59;;;;;;;6.25;5.75;;;;;;;2.35;100.00;101168.41;6030655;23;20713;-73
2023/11/17 03:28:26;;;;;;;6.20;5.78;;;;;;;2.47;100.00;101214.03;6018474;23;20057;-74
2023/11/17 03:30:55;;;;;;;3.72;3.53;;;;;;;1.48;100.00;101036.38;6003898;23;20105;-74
2023/11/17 03:33:22;;;;;;;5.35;4.82;;;;;;;2.38;100.00;101197.69;5995890;23;20031;-74
2023/11/17 03:35:50;;;;;;;6.45;5.82;;;;;;;2.21;100.00;101176.31;6029928;23;20039;-75
2023/11/17 03:38:16;;;;;;;6.20;5.10;;;;;;;1.41;100.00;101060.59;5999522;23;20003;-71
2023/11/17 03:40:46;;;;;;;4.78;4.47;;;;;;;2.01;100.00;101179.09;6021031;23;20031;-74
2023/11/17 03:43:13;;;;;;;9.05;5.22;;;;;;;2.39;100.00;101240.88;6023438;23;20067;-74
2023/11/17 03:45:44;;;;;;;6.20;5.20;;;;;;;2.25;100.00;101224.59;6018645;23;20033;-74
2023/11/17 03:48:11;;;;;;;5.72;5.32;;;;;;;1.58;100.00;101119.94;6018267;23;20015;-75
2023/11/17 03:50:38;;;;;;;6.53;6.13;;;;;;;1.89;100.00;101164.53;6016968;23;20591;-74
2023/11/17 03:53:05;;;;;;;4.78;4.38;;;;;;;2.30;100.00;101233.19;6026649;23;20652;-74
2023/11/17 03:55:32;;;;;;;5.78;5.22;;;;;;;2.28;100.00;101229.75;6029275;23;20034;-74
2023/11/17 03:57:58;;;;;;;5.68;5.07;;;;;;;2.12;100.00;101215.22;6021654;23;20035;-74
2023/11/17 04:00:27;;;;;;;6.30;5.80;;;;;;;1.15;100.00;101066.84;5999823;23;20054;-74
2023/11/17 04:02:54;;;;;;;4.70;4.30;;;;;;;0.63;100.00;100976.78;6001070;23;20027;-74
2023/11/17 04:05:20;;;;;;;4.72;4.43;;;;;;;1.82;100.00;101183.56;6001971;23;20029;-74
2023/11/17 04:07:48;;;;;;;5.38;5.00;;;;;;;0.79;100.00;101115.28;6027781;23;20091;-74
2023/11/17 04:10:18;;;;;;;5.07;4.75;;;;;;;1.56;100.00;101143.25;6025686;23;20364;-74
2023/11/17 04:12:51;;;;;;;4.00;3.80;;;;;;;1.01;100.00;101054.88;6001192;23;20089;-74
2023/11/17 04:15:17;;;;;;;5.95;5.50;;;;;;;2.24;100.00;101240.16;5993084;23;20023;-74
2023/11/17 04:17:43;;;;;;;4.55;4.28;;;;;;;2.03;100.00;101212.75;6028888;23;20094;-73
2023/11/17 04:20:14;;;;;;;9.93;5.22;;;;;;;2.13;100.00;101223.00;6031292;23;20073;-77
2023/11/17 04:22:43;;;;;;;7.95;6.65;;;;;;;1.51;100.00;101113.97;5995948;23;20719;-75
2023/11/17 04:25:09;;;;;;;5.72;4.90;;;;;;;1.86;100.00;101167.13;6026503;23;20072;-74
2023/11/17 04:27:38;;;;;;;5.07;4.68;;;;;;;1.99;100.00;101188.59;5996593;23;20623;-75
2023/11/17 04:30:07;;;;;;;5.88;4.70;;;;;;;2.61;100.00;101297.66;6025866;23;20496;-73
2023/11/17 04:32:35;;;;;;;6.97;6.53;;;;;;;2.50;100.00;101265.81;6018238;23;20034;-74
2023/11/17 04:35:03;;;;;;;5.90;5.50;;;;;;;2.47;100.00;101274.47;6005418;23;20027;-76
2023/11/17 04:37:29;;;;;;;7.22;4.82;;;;;;;2.77;100.00;101312.19;6026326;23;20090;-73
2023/11/17 04:39:56;;;;;;;8.30;5.57;;;;;;;2.43;100.00;101256.41;6004508;23;20099;-73
2023/11/17 04:42:23;;;;;;;14.32;6.43;;;;;;;2.17;100.00;101208.28;6026958;23;20026;-74
2023/11/17 04:44:49;;;;;;;5.20;4.70;;;;;;;2.83;100.00;101318.16;6002778;23;20111;-74
2023/11/17 04:47:16;;;;;;;4.32;4.07;;;;;;;1.44;100.00;101091.59;6024002;23;20093;-74
2023/11/17 04:49:45;;;;;;;7.00;6.43;;;;;;;2.72;100.00;101306.19;6026405;23;20098;-74
2023/11/17 04:52:12;;;;;;;4.50;4.22;;;;;;;2.59;100.00;101279.53;5997468;23;20543;-73
2023/11/17 04:54:39;;;;;;;5.22;4.90;;;;;;;2.75;100.00;101308.75;5999283;23;20481;-73
2023/11/17 04:57:08;;;;;;;6.88;5.85;;;;;;;2.57;100.00;101255.38;6024274;23;20007;-74
2023/11/17 04:59:35;;;;;;;6.55;6.05;;;;;;;2.84;100.00;101293.97;6035847;23;20102;-75
2023/11/17 05:02:02;;;;;;;12.00;5.35;;;;;;;2.83;100.00;101294.84;6026627;23;20382;-74
2023/11/17 05:04:29;;;;;;;7.60;6.40;;;;;;;2.62;100.00;101257.91;5997948;23;20030;-75
2023/11/17 05:06:56;;;;;;;8.98;6.70;;;;;;;3.06;100.00;101323.97;6025795;23;20018;-74
2023/11/17 05:09:22;;;;;;;5.85;5.47;;;;;;;2.78;100.00;101287.97;5994174;23;20026;-73
2023/11/17 05:11:49;;;;;;;5.45;4.95;;;;;;;3.11;100.00;101322.19;6025962;23;20038;-74
2023/11/17 05:14:15;;;;;;;4.90;4.65;;;;;;;3.10;100.00;101317.03;6000067;23;20093;-74
2023/11/17 05:16:43;;;;;;;5.70;5.30;;;;;;;3.19;100.00;101338.53;5997378;23;20038;-74
2023/11/17 05:19:10;;;;;;;5.55;5.03;;;;;;;3.05;100.00;101314.50;6000415;23;20098;-73
2023/11/17 05:21:37;;;;;;;5.47;5.10;;;;;;;2.76;100.00;101255.19;6022123;23;20031;-74
2023/11/17 05:24:04;;;;;;;5.35;4.68;;;;;;;2.54;100.00;101239.00;5999422;23;20034;-73
2023/11/17 05:26:31;;;;;;;6.75;6.15;;;;;;;3.28;100.00;101352.28;6024566;23;20050;-73
2023/11/17 05:28:57;;;;;;;4.40;4.20;;;;;;;3.18;100.00;101335.94;5998040;23;20066;-73
2023/11/17 05:31:26;;;;;;;5.25;4.68;;;;;;;3.11;100.00;101324.78;5999642;23;20100;-73
2023/11/17 05:33:52;;;;;;;5.93;5.43;;;;;;;3.33;100.00;101361.72;5998513;23;20027;-74
2023/11/17 05:36:19;;;;;;;9.88;6.13;;;;;;;3.35;100.00;101372.09;5997996;23;20545;-75
2023/11/17 05:38:48;;;;;;;5.68;4.80;;;;;;;3.08;100.00;101314.44;6022943;23;20760;-74
2023/11/17 05:41:14;;;;;;;4.30;4.00;;;;;;;2.65;100.00;101254.44;5998780;23;20027;-74
2023/11/17 05:43:45;;;;;;;6.65;6.15;;;;;;;2.94;100.00;101293.84;6026391;23;20038;-74
2023/11/17 05:46:12;;;;;;;4.70;4.45;;;;;;;2.79;100.00;101284.53;5996586;23;20076;-74
2023/11/17 05:48:38;;;;;;;6.78;6.05;;;;;;;2.64;100.00;101250.97;6024589;23;20561;-72
2023/11/17 05:51:09;;;;;;;5.45;5.07;;;;;;;2.60;100.00;101254.47;5995938;23;20027;-74
2023/11/17 05:53:37;;;;;;;7.00;6.28;;;;;;;2.82;100.00;101282.78;5994260;23;20055;-75
2023/11/17 05:56:06;;;;;;;5.15;4.75;;;;;;;3.31;100.00;101367.81;6018175;23;20094;-74
2023/11/17 05:58:33;;;;;;;8.35;7.55;;;;;;;3.36;100.00;101372.03;6015457;23;20019;-73
2023/11/17 06:00:59;;;;;;;5.50;5.18;;;;;;;2.71;100.00;101269.94;6022537;23;20631;-74
2023/11/17 06:03:27;;;;;;;5.85;5.32;;;;;;;2.63;100.00;101274.34;6020843;23;20607;-74
2023/11/17 06:05:55;;;;;;;5.53;5.15;;;;;;;2.89;100.00;101294.81;6026991;23;20031;-75
2023/11/17 06:08:22;;;;;;;6.45;5.80;;;;;;;3.37;100.00;101384.16;6022474;23;20007;-74
2023/11/17 06:10:48;;;;;;;5.93;5.53;;;;;;;3.38;100.00;101385.00;6019500;23;20030;-74
2023/11/17 06:13:15;;;;;;;6.07;5.60;;;;;;;2.98;100.00;101312.84;6005717;23;20034;-74
2023/11/17 06:15:42;;;;;;;7.65;6.85;;;;;;;3.23;100.00;101361.81;6014488;23;20480;-73
2023/11/17 06:18:08;;;;;;;5.63;5.13;;;;;;;3.19;100.00;101364.47;6026866;23;20123;-74
2023/11/17 06:20:35;;;;;;;7.10;6.60;;;;;;;3.37;100.00;101380.72;5989525;23;20041;-74
2023/11/17 06:23:01;;;;;;;5.43;5.03;;;;;;;2.67;100.00;101269.09;6001194;23;20433;-74
2023/11/17 06:25:28;;;;;;;6.90;6.35;;;;;;;2.04;100.00;101173.03;6023219;23;20631;-74
2023/11/17 06:27:54;;;;;;;9.30;5.68;;;;;;;2.68;100.00;101283.75;6016007;23;20348;-74
2023/11/17 06:30:21;;;;;;;7.38;6.00;;;;;;;3.37;100.00;101393.69;6020585;23;20085;-75
2023/11/17 06:32:47;;;;;;;6.07;5.68;;;;;;;2.99;100.00;101335.31;6019478;23;20937;-74
2023/11/17 06:35:15;;;;;;;5.65;5.22;;;;;;;3.33;100.00;101397.19;6025992;23;20034;-74
2023/11/17 06:37:42;;;;;;;6.85;4.93;;;;;;;2.71;100.00;101299.28;6001351;23;20054;-74
2023/11/17 06:40:10;;;;;;;5.57;5.18;;;;;;;2.93;100.00;101367.34;6020360;23;20101;-74
2023/11/17 06:42:38;;;;;;;7.20;6.47;;;;;;;3.16;100.00;101402.53;5994975;23;20023;-74
2023/11/17 06:45:05;;;;;;;6.97;5.40;;;;;;;2.62;100.00;101308.88;5991269;23;20029;-74
2023/11/17 06:47:32;;;;;;;6.82;5.63;;;;;;;2.45;100.00;101273.63;6023174;23;20094;-74
2023/11/17 06:49:59;;;;;;;4.95;4.57;;;;;;;3.41;100.00;101421.31;6020554;23;20172;-74
2023/11/17 06:52:26;;;;;;;8.93;6.60;;;;;;;2.83;100.00;101328.53;5990227;23;20058;-74
2023/11/17 06:54:52;;;;;;;5.35;5.05;;;;;;;2.93;100.00;101369.06;6021183;23;20015;-74
2023/11/17 06:57:19;;;;;;;5.97;5.47;;;;;;;2.49;100.00;101272.72;5991612;23;20145;-74
2023/11/17 06:59:45;;;;;;;5.22;4.90;;;;;;;2.69;100.00;101315.75;6023719;23;20026;-74
2023/11/17 07:02:11;;;;;;;6.20;5.53;;;;;;;3.05;100.00;101361.16;6024543;23;20095;-74
2023/11/17 07:04:38;;;;;;;5.25;4.95;;;;;;;2.35;100.00;101254.72;6017547;23;20916;-74
2023/11/17 07:07:04;;;;;;;6.03;5.63;;;;;;;3.28;100.00;101398.97;5999346;23;20039;-73
2023/11/17 07:09:36;;;;;;;6.20;5.70;;;;;;;2.71;100.00;101312.25;6016981;23;20067;-73
2023/11/17 07:12:06;;;;;;;7.40;5.63;;;;;;;3.53;100.00;101430.69;6021973;23;20133;-73
2023/11/17 07:14:33;;;;;;;7.28;6.78;;;;;;;2.97;100.00;101358.66;6019281;23;20064;-72
2023/11/17 07:17:04;;;;;;;7.05;6.47;;;;;;;2.75;100.00;101313.94;6013751;23;20073;-74
2023/11/17 07:19:32;;;;;;;7.63;6.82;;;;;;;3.28;100.00;101405.00;6022384;23;20816;-74
2023/11/17 07:22:01;;;;;;;5.75;5.22;;;;;;;3.37;100.00;101428.25;6017665;23;20031;-74
2023/11/17 07:24:29;;;;;;;6.97;6.47;;;;;;;2.72;100.00;101360.59;5969075;23;20546;-74
2023/11/17 07:26:55;;;;;;;8.15;6.35;;;;;;;2.69;100.00;101341.66;6018270;23;20094;-74
2023/11/17 07:29:25;;;;;;;7.95;5.53;;;;;;;3.24;100.00;101438.78;5996063;23;20623;-74
2023/11/17 07:31:52;;;;;;;7.38;6.68;;;;;;;2.89;100.00;101380.34;6023984;23;20665;-74
2023/11/17 07:34:20;;;;;;;6.82;6.40;;;;;;;3.50;100.00;101443.69;6019670;23;20398;-75
2023/11/17 07:36:49;;;;;;;4.78;4.47;;;;;;;3.47;100.00;101404.78;5971201;23;20019;-75
2023/11/17 07:39:23;;;;;;;5.28;4.78;;;;;;;3.38;100.00;101366.84;6000645;23;20022;-73
2023/11/17 07:41:49;;;;;;;5.82;5.13;;;;;;;2.52;100.00;101214.84;5993791;23;20019;-74
2023/11/17 07:44:16;;;;;;;4.75;4.45;;;;;;;3.99;100.00;101424.94;6022323;23;20047;-74
2023/11/17 07:46:42;;;;;;;5.95;5.35;;;;;;;4.05;100.00;101418.78;5971867;23;20044;-74
2023/11/17 07:49:10;;;;;;;7.28;5.18;;;;;;;2.55;100.00;101156.09;5998805;23;20023;-73
2023/11/17 07:51:37;;;;;;;5.20;4.90;;;;;;;2.63;100.00;101137.84;6018297;23;20466;-73
2023/11/17 07:54:04;;;;;;;9.48;6.60;;;;;;;4.12;100.00;101384.06;6017821;23;20031;-73
2023/11/17 07:56:30;;;;;;;7.88;7.18;;;;;;;4.30;100.00;101382.94;6018719;23;20030;-73
2023/11/17 07:58:59;;;;;;;8.38;6.50;;;;;;;4.28;100.00;101343.97;5997700;23;20034;-73
2023/11/17 08:01:26;;;;;;;7.88;6.32;;;;;;;4.38;100.00;101342.94;6004032;23;20120;-73
2023/11/17 08:03:53;;;;;;;7.03;6.15;;;;;;;4.53;100.00;101346.19;6019244;23;20118;-73
2023/11/17 08:06:20;;;;;;;7.82;7.20;;;;;;;4.54;100.00;101335.75;6022449;23;20023;-73
2023/11/17 08:08:47;;;;;;;7.53;6.93;;;;;;;4.94;100.00;101374.06;5989450;23;20805;-73
2023/11/17 08:11:15;;;;;;;8.50;7.90;;;;;;;4.80;100.00;101337.91;5998177;23;20026;-73
2023/11/17 08:13:44;;;;;;;7.85;5.82;;;;;;;4.86;100.00;101357.75;6020892;23;20466;-73
2023/11/17 08:16:11;;;;;;;10.18;7.28;;;;;;;4.90;100.00;101317.78;6020367;23;20030;-73
2023/11/17 08:18:38;;;;;;;7.75;7.15;;;;;;;5.05;100.00;101329.66;6022178;23;20081;-74
2023/11/17 08:21:06;;;;;;;9.77;6.78;;;;;;;4.82;100.00;101259.88;6004557;23;20307;-74
2023/11/17 08:23:33;;;;;;;9.43;8.13;;;;;;;5.56;100.00;101354.69;6008401;23;20018;-73
2023/11/17 08:26:01;;;;;;;8.73;7.05;;;;;;;5.66;100.00;101357.94;6033965;23;20014;-74
2023/11/17 08:28:28;;;;;;;9.00;7.55;;;;;;;4.93;100.00;101229.31;6002075;23;20025;-74
2023/11/17 08:30:57;;;;;;;7.07;6.50;;;;;;;5.63;100.00;101311.13;6024766;23;20028;-73
2023/11/17 08:33:24;;;;;;;10.18;9.30;;;;;;;5.35;100.00;101288.28;5890771;23;20411;-73
2023/11/17 08:35:52;;;;;;;14.23;7.22;;;;;;;4.41;100.00;101123.78;5996961;23;20073;-73
2023/11/17 08:38:20;;;;;;;11.13;9.13;;;;;;;5.76;100.00;101330.81;5994140;23;20026;-74
2023/11/17 08:40:47;;;;;;;12.77;9.27;;;;;;;5.77;100.00;101311.69;6024072;23;20023;-73
2023/11/17 08:43:18;;;;;;;10.98;9.00;;;;;;;5.34;100.00;101260.56;6026258;23;20030;-73
2023/11/17 08:45:47;;;;;;;10.80;9.10;;;;;;;5.67;100.00;101271.97;6025088;23;20022;-74
2023/11/17 08:48:14;;;;;;;8.65;7.75;;;;;;;5.70;100.00;101278.88;6023001;23;20050;-74
2023/11/17 08:50:41;;;;;;;10.52;8.55;;;;;;;5.88;100.00;101296.66;6024775;23;20528;-73
2023/11/17 08:53:08;;;;;;;10.00;9.18;;;;;;;6.08;100.00;101303.22;5997064;23;20030;-72
2023/11/17 08:55:34;;;;;;;9.13;8.25;;;;;;;6.03;100.00;101276.38;5974755;23;20020;-72
2023/11/17 08:58:01;;;;;;;16.33;7.85;;;;;;;5.10;100.00;101137.91;6000791;23;20114;-72
2023/11/17 09:00:30;;;;;;;12.95;9.45;;;;;;;5.58;100.00;101239.19;6019024;23;20035;-73
2023/11/17 09:02:58;;;;;;;9.73;8.00;;;;;;;6.06;100.00;101298.03;6000704;23;20027;-72
2023/11/17 09:05:25;;;;;;;20.02;8.73;;;;;;;6.11;100.00;101284.88;5969768;23;20635;-72
2023/11/17 09:07:51;;;;;;;11.35;8.73;;;;;;;6.06;100.00;101250.28;6002524;23;20039;-72
2023/11/17 09:10:22;;;;;;;16.77;8.70;;;;;;;6.17;100.00;101269.97;6020188;23;20022;-74
2023/11/17 09:12:53;;;;;;;12.15;8.90;;;;;;;6.14;100.00;101217.06;6025563;23;20098;-73
2023/11/17 09:15:25;;;;;;;10.55;9.40;;;;;;;6.46;100.00;101260.53;6025279;23;20028;-73
2023/11/17 09:17:52;;;;;;;9.40;6.70;;;;;;;6.01;100.00;101200.84;5990054;23;20097;-72
2023/11/17 09:20:23;;;;;;;15.02;10.00;;;;;;;5.98;100.00;101169.69;5995996;23;20011;-73
2023/11/17 09:22:51;;;;;;;15.85;9.95;;;;;;;6.45;100.00;101245.78;6021860;23;20046;-73
2023/11/17 09:25:19;;;;;;;18.05;9.73;;;;;;;6.24;100.00;101202.91;5994662;23;20482;-73
2023/11/17 09:28:04;;;;;;;15.73;10.60;;;;;;;6.03;100.00;101157.38;6025191;23;20034;-73
2023/11/17 09:30:31;;;;;;;21.33;12.25;;;;;;;6.33;100.00;101214.81;5989248;23;20031;-74
2023/11/17 09:32:59;;;;;;;13.95;9.27;;;;;;;6.39;100.00;101235.50;6025143;23;20023;-74
2023/11/17 09:35:26;;;;;;;13.73;9.07;;;;;;;6.08;100.00;101178.13;6022209;23;20718;-75
2023/11/17 09:37:56;;;;;;;10.32;9.15;;;;;;;6.21;100.00;101210.78;5998306;23;20030;-75
2023/11/17 09:40:24;;;;;;;15.90;11.95;;;;;;;6.49;100.00;101217.88;5995564;23;20553;-70
2023/11/17 09:42:57;;;;;;;14.73;10.48;;;;;;;6.59;100.00;101214.13;6022426;23;20031;-75
2023/11/17 09:45:25;;;;;;;16.85;11.30;;;;;;;6.56;100.00;101212.47;6008466;23;20101;-74
2023/11/17 09:47:54;;;;;;;10.00;9.00;;;;;;;6.78;100.00;101217.94;6016600;23;20030;-74
2023/11/17 09:50:26;;;;;;;16.08;11.75;;;;;;;6.61;100.00;101133.25;6021801;23;20030;-75
2023/11/17 09:52:54;;;;;;;21.60;11.77;;;;;;;6.61;100.00;101120.22;6016816;23;20093;-72
2023/11/17 09:55:22;;;;;;;17.38;10.70;;;;;;;5.61;100.00;100918.00;5999183;23;20095;-74
2023/11/17 09:57:53;;;;;;;21.98;12.13;;;;;;;7.51;100.00;101202.75;6021075;23;20110;-74
2023/11/17 10:00:22;;;;;;;15.65;10.82;;;;;;;7.24;100.00;101163.53;5999999;23;20027;-75
2023/11/17 10:02:52;;;;;;;13.32;10.50;;;;;;;6.91;100.00;101111.47;5995973;23;20027;-75
2023/11/17 10:05:20;;;;;;;22.30;10.38;;;;;;;7.09;100.00;101136.13;5990555;23;20027;-72
2023/11/17 10:07:48;;;;;;;14.68;11.18;;;;;;;7.22;100.00;101131.41;6021908;23;20086;-72
2023/11/17 10:10:18;;;;;;;14.88;10.15;;;;;;;7.29;100.00;101140.75;6023013;23;20155;-73
2023/11/17 10:12:49;;;;;;;17.83;10.90;;;;;;;7.36;100.00;101133.59;5994922;23;20035;-73
2023/11/17 10:15:25;;;;;;;20.33;11.02;;;;;;;7.07;100.00;101088.34;6021931;23;20035;-73
2023/11/17 10:18:05;;;;;;;27.10;11.43;;;;;;;7.06;100.00;101059.72;5992890;23;20524;-73
2023/11/17 10:20:36;;;;;;;38.33;13.05;;;;;;;7.38;100.00;101097.84;6021131;23;20492;-73
2023/11/17 10:23:06;;;;;;;15.23;12.20;;;;;;;7.33;100.00;101091.91;5998815;23;20083;-74
2023/11/17 10:25:33;;;;;;;15.57;10.10;;;;;;;6.18;100.00;100895.56;5972816;23;20031;-73
2023/11/17 10:28:03;;;;;;;17.13;11.02;;;;;;;7.31;100.00;101088.50;6025948;23;20038;-73
2023/11/17 10:30:44;;;;;;;17.00;12.57;;;;;;;7.20;100.00;101070.56;6018667;23;20025;-74
2023/11/17 10:33:25;;;;;;;14.35;9.48;;;;;;;7.23;100.00;101085.28;5996071;23;20035;-74
2023/11/17 10:36:11;;;;;;;18.92;9.93;;;;;;;7.47;100.00;101101.91;6021261;23;20049;-74
2023/11/17 10:38:42;;;;;;;23.10;10.68;;;;;;;7.46;100.00;101092.38;6025572;23;20018;-73
2023/11/17 10:41:17;;;;;;;19.88;10.80;;;;;;;7.70;100.00;101111.59;5991279;23;20037;-73
2023/11/17 10:43:48;;;;;;;15.50;11.60;;;;;;;7.70;100.00;101090.69;6025309;23;20556;-73
2023/11/17 10:46:19;;;;;;;29.48;10.40;;;;;;;7.54;100.00;101070.31;5993161;23;21080;-73
2023/11/17 10:48:48;;;;;;;15.13;9.65;;;;;;;7.71;100.00;101074.94;6002020;23;20026;-73
2023/11/17 10:51:18;;;;;;;12.13;10.10;;;;;;;7.41;100.00;101042.91;6018723;23;20026;-74
2023/11/17 10:54:08;;;;;;;16.15;10.50;;;;;;;7.43;100.00;101001.91;6020604;23;20489;-73
2023/11/17 10:56:36;;;;;;;26.98;13.75;;;;;;;7.48;100.00;101017.44;6020390;23;20081;-73
2023/11/17 10:59:04;;;;;;;19.88;10.57;;;;;;;7.84;100.00;101059.72;6019416;23;20018;-74
2023/11/17 11:01:31;;;;;;;11.63;10.43;;;;;;;7.51;100.00;101002.50;6022302;23;20041;-73
2023/11/17 11:03:59;;;;;;;17.42;10.90;;;;;;;7.57;100.00;101028.41;5998459;23;20027;-73
2023/11/17 11:06:27;;;;;;;23.20;12.13;;;;;;;7.73;100.00;101065.31;6019923;23;20038;-74
2023/11/17 11:08:55;;;;;;;21.55;12.18;;;;;;;6.65;100.00;100913.19;5997599;23;20030;-74
2023/11/17 11:11:23;;;;;;;16.50;9.90;;;;;;;7.30;100.00;101032.81;5991665;23;20100;-73
2023/11/17 11:13:56;;;;;;;18.15;10.38;;;;;;;6.75;100.00;100933.69;5999055;23;20026;-73
2023/11/17 11:16:24;;;;;;;18.15;10.35;;;;;;;7.32;100.00;101043.22;6015773;23;20066;-73
2023/11/17 11:18:54;;;;;;;18.88;11.05;;;;;;;6.69;100.00;100918.25;6022049;23;20026;-73
2023/11/17 11:21:22;;;;;;;13.55;10.55;;;;;;;6.39;100.00;100827.13;6020882;23;20078;-73
2023/11/17 11:23:49;;;;;;;26.05;11.70;;;;;;;7.72;100.00;101052.31;5993314;23;20027;-72
2023/11/17 11:26:19;;;;;;;14.70;10.20;;;;;;;7.57;100.00;101038.00;6023645;23;20051;-72
2023/11/17 11:28:46;;;;;;;18.60;11.35;;;;;;;7.68;100.00;101029.81;6017014;23;20010;-72